Scf Baltica — A8IA5 — position and weather

sailwx.info

Track history (hours):
 
Tides and Currents Weather Stations Pressure Air Temp Water Temp Dewpoint Dewpoint Depression Visibility Wind Speed Wind Dir Waves Ship Positions

Scf Baltica

Last reported at 2017-Aug-22 21:59 UTC. Time now 2017-Aug-22 22:21 UTC.
Position N 57°47' E 010°49'.

Length 250 m; draft 14.3 m.

Type: Ship. MMSI: 636012813.

Date/timePositionNaut miles runAvg speedWind from/ knotsBaromVisibWave heightAir tempDewpointWater temp
2017-Aug-22 21:59N 57°47' E 010°49'611.7
2017-Aug-22 21:28N 57°42' E 010°57'612.3
2017-Aug-22 21:00N 57°38' E 011°05'612.5
2017-Aug-22 20:30N 57°34' E 011°13'612.7
2017-Aug-22 20:00N 57°30' E 011°22'611.8
2017-Aug-22 19:30N 57°25' E 011°28'612.0
2017-Aug-22 19:00N 57°19' E 011°31'812.2
2017-Aug-22 18:23N 57°12' E 011°36'711.8
2017-Aug-22 17:50N 57°06' E 011°40'10610.6
2017-Aug-22 07:50N 55°22' E 011°02'3 8.8
2017-Aug-22 07:29N 55°19' E 011°02'510.3
2017-Aug-22 06:59N 55°14' E 011°06'510.5
2017-Aug-22 06:30N 55°10' E 011°01'611.5
2017-Aug-22 06:00N 55°04' E 010°60'511.1
2017-Aug-22 05:30N 54°59' E 010°58'611.3
2017-Aug-22 05:00N 54°54' E 010°52'510.9
2017-Aug-22 04:30N 54°49' E 010°50'510.5
2017-Aug-22 04:00N 54°44' E 010°47'510.0
2017-Aug-22 03:30N 54°39' E 010°50'510.9
2017-Aug-22 03:00N 54°37' E 010°58'510.6
2017-Aug-22 02:30N 54°36' E 011°07'510.5
2017-Aug-22 02:00N 54°34' E 011°15'611.1
2017-Aug-22 01:30N 54°32' E 011°24'611.3
2017-Aug-22 01:00N 54°29' E 011°33'611.0
2017-Aug-22 00:30N 54°27' E 011°41'811.2
2017-Aug-21 23:47N 54°26' E 011°55'311.0
2017-Aug-21 23:30N 54°26' E 012°01'4 8.9
2017-Aug-21 23:00N 54°26' E 012°08'4 8.4
2017-Aug-21 22:30N 54°30' E 012°13'5 9.7
2017-Aug-21 22:00N 54°34' E 012°16'4 8.4
2017-Aug-21 21:30N 54°38' E 012°20'6 5.0
2017-Aug-21 20:17N 54°41' E 012°29'1 3.4
2017-Aug-21 20:00N 54°41' E 012°30'2 3.6
2017-Aug-21 19:30N 54°42' E 012°33'33 9.4
2017-Aug-21 15:56N 54°56' E 013°25'512.5
2017-Aug-21 15:30N 54°58' E 013°35'612.6
2017-Aug-21 15:00N 54°60' E 013°45'612.6
2017-Aug-21 14:30N 55°02' E 013°55'612.3
2017-Aug-21 14:00N 55°04' E 014°05'612.7
2017-Aug-21 13:30N 55°09' E 014°12'612.9
2017-Aug-21 13:00N 55°14' E 014°19'713.0
2017-Aug-21 12:30N 55°19' E 014°26'713.0
2017-Aug-21 12:00N 55°24' E 014°33'612.6
2017-Aug-21 11:30N 55°28' E 014°42'713.1
2017-Aug-21 11:00N 55°31' E 014°52'713.1
2017-Aug-21 10:30N 55°35' E 015°02'713.6
2017-Aug-21 10:01N 55°37' E 015°13'713.8
2017-Aug-21 09:30N 55°39' E 015°25'713.7
2017-Aug-21 09:00N 55°41' E 015°37'713.7
2017-Aug-21 08:30N 55°42' E 015°49'713.8
2017-Aug-21 08:00N 55°44' E 016°01'613.1
2017-Aug-21 07:30N 55°45' E 016°12'712.9
2017-Aug-21 07:00N 55°47' E 016°23'713.0
2017-Aug-21 06:30N 55°49' E 016°34'712.9
2017-Aug-21 05:58N 55°50' E 016°46'24210.7
2017-Aug-20 07:27N 58°59' E 021°27'512.2
2017-Aug-20 07:00N 59°04' E 021°33'612.3
2017-Aug-20 06:30N 59°09' E 021°39'612.2
2017-Aug-20 06:00N 59°13' E 021°48'612.4
2017-Aug-20 05:30N 59°17' E 021°58'612.3
2017-Aug-20 05:00N 59°20' E 022°08'612.4
2017-Aug-20 04:30N 59°24' E 022°17'612.3
2017-Aug-20 04:01N 59°28' E 022°26'713.4
2017-Aug-20 03:30N 59°31' E 022°38'510.7
2017-Aug-20 03:00N 59°32' E 022°48'612.1
2017-Aug-20 02:30N 59°34' E 022°59'612.2
2017-Aug-20 02:01N 59°36' E 023°11'612.0
2017-Aug-20 01:30N 59°38' E 023°22'612.2
2017-Aug-20 01:01N 59°39' E 023°34'612.2
2017-Aug-20 00:31N 59°41' E 023°45'612.2
2017-Aug-20 00:01N 59°43' E 023°57'612.4
2017-Aug-19 23:30N 59°45' E 024°09'612.6
2017-Aug-19 23:01N 59°46' E 024°21'612.9
2017-Aug-19 22:30N 59°48' E 024°33'612.7
2017-Aug-19 22:00N 59°49' E 024°46'612.6
2017-Aug-19 21:31N 59°50' E 024°58'612.6
2017-Aug-19 21:01N 59°51' E 025°10'612.7
2017-Aug-19 20:31N 59°53' E 025°23'713.2
2017-Aug-19 20:00N 59°54' E 025°36'714.0
2017-Aug-19 19:30N 59°56' E 025°49'611.0
2017-Aug-19 19:00N 59°57' E 025°60'612.5
2017-Aug-19 18:31N 59°59' E 026°12'612.0
2017-Aug-19 18:01N 60°00' E 026°23'611.9
2017-Aug-19 17:31N 60°02' E 026°35'612.1
2017-Aug-19 17:01N 60°01' E 026°47'612.2
2017-Aug-19 16:31N 59°60' E 026°59'611.8
2017-Aug-19 16:01N 60°01' E 027°10'612.1
2017-Aug-19 15:31N 60°05' E 027°21'612.1
2017-Aug-19 15:00N 60°08' E 027°31'1211.8
2017-Aug-19 14:01N 60°11' E 027°54'612.7
2017-Aug-19 13:31N 60°09' E 028°06'612.7
2017-Aug-19 13:00N 60°08' E 028°18'612.3
2017-Aug-19 12:31N 60°08' E 028°30'612.5
2017-Aug-19 12:01N 60°11' E 028°42'4 8.7
2017-Aug-19 11:30N 60°14' E 028°47'4 8.0
2017-Aug-19 11:01N 60°18' E 028°44'2 4.8
2017-Aug-19 10:31N 60°20' E 028°42'0 0.2
2017-Aug-19 09:58N 60°20' E 028°42'0 0.0
2017-Aug-19 09:28N 60°20' E 028°42'0 0.0
2017-Aug-19 08:58N 60°20' E 028°42'0 0.0
2017-Aug-19 08:28N 60°20' E 028°42'0 0.0
2017-Aug-19 07:58N 60°20' E 028°42'0 0.0
2017-Aug-19 07:28N 60°20' E 028°42'0 0.0
2017-Aug-19 06:58N 60°20' E 028°42'0 0.0
2017-Aug-19 06:28N 60°20' E 028°42'0 0.0
2017-Aug-19 05:58N 60°20' E 028°42'0 0.0
2017-Aug-19 05:24N 60°20' E 028°42'0 0.0
2017-Aug-19 04:58N 60°20' E 028°42'0 0.0
2017-Aug-19 04:28N 60°20' E 028°42'0 0.0
2017-Aug-19 03:52N 60°20' E 028°42'0 0.0
2017-Aug-19 03:28N 60°20' E 028°42'0 0.0
2017-Aug-19 02:52N 60°20' E 028°42'0 0.0
2017-Aug-19 02:22N 60°20' E 028°42'0 0.0
2017-Aug-19 01:52N 60°20' E 028°42'0 0.0
2017-Aug-19 01:28N 60°20' E 028°42'0 0.0
2017-Aug-19 00:58N 60°20' E 028°42'0 0.0
2017-Aug-19 00:28N 60°20' E 028°42'0 0.0
2017-Aug-18 23:55N 60°20' E 028°42'0 0.0
2017-Aug-18 23:28N 60°20' E 028°42'0 0.0
2017-Aug-18 22:58N 60°20' E 028°42'0 0.0
2017-Aug-18 22:22N 60°20' E 028°42'0 0.0
2017-Aug-18 21:58N 60°20' E 028°42'0 0.0
2017-Aug-18 21:28N 60°20' E 028°42'0 0.0
2017-Aug-18 20:58N 60°20' E 028°42'0 0.0
2017-Aug-18 20:25N 60°20' E 028°42'0 0.0
2017-Aug-18 19:55N 60°20' E 028°42'0 0.0
2017-Aug-18 19:28N 60°20' E 028°42'0 0.0
2017-Aug-18 18:58N 60°20' E 028°42'0 0.0
2017-Aug-18 18:28N 60°20' E 028°42'0 0.0
2017-Aug-18 17:58N 60°20' E 028°42'0 0.0
2017-Aug-18 17:28N 60°20' E 028°42'0 0.0
2017-Aug-18 16:58N 60°20' E 028°42'0 0.0
2017-Aug-18 16:28N 60°20' E 028°42'0 0.0
2017-Aug-18 15:58N 60°20' E 028°42'0 0.0
2017-Aug-18 15:28N 60°20' E 028°42'0 0.0
2017-Aug-18 14:58N 60°20' E 028°42'0 0.0
2017-Aug-18 14:25N 60°20' E 028°42'0 0.0
2017-Aug-18 13:28N 60°20' E 028°42'0 0.0
2017-Aug-18 12:58N 60°20' E 028°42'0 0.0
2017-Aug-18 12:28N 60°20' E 028°42'0 0.0
2017-Aug-18 11:55N 60°20' E 028°42'0 0.0
2017-Aug-18 11:25N 60°20' E 028°42'0 0.0
2017-Aug-18 10:58N 60°20' E 028°42'0 0.0
2017-Aug-18 10:28N 60°20' E 028°42'0 0.0
2017-Aug-18 09:58N 60°20' E 028°42'0 0.0
2017-Aug-18 09:28N 60°20' E 028°42'0 0.0
2017-Aug-18 08:58N 60°20' E 028°42'0 0.0
2017-Aug-18 08:25N 60°20' E 028°42'0 0.0
2017-Aug-18 07:58N 60°20' E 028°42'0 0.0
2017-Aug-18 07:28N 60°20' E 028°42'0 0.4
2017-Aug-18 07:00N 60°20' E 028°41'1 2.2
2017-Aug-18 06:30N 60°19' E 028°42'4 8.4
2017-Aug-18 06:01N 60°16' E 028°48'612.1
2017-Aug-18 05:30N 60°10' E 028°42'713.4
2017-Aug-18 05:01N 60°06' E 028°33'611.1
2017-Aug-18 04:30N 60°01' E 028°29'0 0.6
2017-Aug-18 03:58N 60°00' E 028°30'0 0.0
2017-Aug-18 03:25N 60°00' E 028°30'0 0.0
2017-Aug-18 02:58N 60°00' E 028°30'0 0.0
2017-Aug-18 02:25N 60°00' E 028°30'0 0.0
2017-Aug-18 01:55N 60°00' E 028°30'0 0.0
2017-Aug-18 01:28N 60°00' E 028°29'0 0.0
2017-Aug-18 00:58N 60°00' E 028°29'0 0.0
2017-Aug-18 00:29N 60°00' E 028°30'0 0.0
2017-Aug-17 23:58N 60°00' E 028°30'0 0.0
2017-Aug-17 23:28N 60°00' E 028°30'0 0.0
2017-Aug-17 22:58N 60°00' E 028°29'0 0.0
2017-Aug-17 22:28N 60°00' E 028°29'0 0.0
2017-Aug-17 21:58N 60°00' E 028°29'0 0.0
2017-Aug-17 21:28N 60°00' E 028°29'0 0.1
2017-Aug-17 20:59N 60°00' E 028°29'0 0.0
2017-Aug-17 20:25N 60°00' E 028°29'0 0.0
2017-Aug-17 19:59N 60°00' E 028°29'0 0.0
2017-Aug-17 19:28N 60°00' E 028°29'0 0.0
2017-Aug-17 18:59N 60°00' E 028°29'0 0.0
2017-Aug-17 18:28N 60°00' E 028°29'0 0.0
2017-Aug-17 18:00N 60°00' E 028°29'0 0.0
2017-Aug-17 17:30N 60°00' E 028°29'0 0.0
2017-Aug-17 16:58N 60°00' E 028°29'0 0.0
2017-Aug-17 16:29N 60°00' E 028°29'0 0.0
2017-Aug-17 15:58N 60°00' E 028°29'0 0.0
2017-Aug-17 15:28N 60°00' E 028°29'0 0.0
2017-Aug-17 14:58N 60°00' E 028°29'0 0.0
2017-Aug-17 14:29N 60°00' E 028°29'0 0.0
2017-Aug-17 13:59N 60°00' E 028°29'0 0.0
2017-Aug-17 13:29N 60°00' E 028°29'0 0.1
2017-Aug-17 13:01N 60°00' E 028°29'0 0.0
2017-Aug-17 12:30N 60°00' E 028°29'0 0.0
2017-Aug-17 11:58N 60°00' E 028°29'0 0.0
2017-Aug-17 11:28N 60°00' E 028°29'0 0.0
2017-Aug-17 10:58N 60°00' E 028°29'0 0.0
2017-Aug-17 10:30N 60°00' E 028°29'0 0.0
2017-Aug-17 09:59N 60°00' E 028°29'0 0.0
2017-Aug-17 09:29N 60°00' E 028°29'0 0.0
2017-Aug-17 08:58N 60°00' E 028°29'0 0.1
2017-Aug-17 08:28N 60°00' E 028°29'0 0.0
2017-Aug-17 07:58N 60°00' E 028°29'0 0.0
2017-Aug-17 07:29N 60°00' E 028°29'0 0.0
2017-Aug-17 06:55N 60°00' E 028°29'0 0.0
2017-Aug-17 06:29N 60°00' E 028°29'0 0.0
2017-Aug-17 05:58N 60°00' E 028°29'0 0.0
2017-Aug-17 05:28N 60°00' E 028°29'0 0.0
2017-Aug-17 04:58N 60°00' E 028°29'0 0.0
2017-Aug-17 04:28N 60°00' E 028°29'0 0.0
2017-Aug-17 03:58N 60°00' E 028°29'0 0.1
2017-Aug-17 03:28N 60°00' E 028°29'0 0.0
2017-Aug-17 02:58N 60°00' E 028°29'0 0.0
2017-Aug-17 02:28N 60°00' E 028°29'0 0.0
2017-Aug-17 01:55N 60°00' E 028°29'0 0.0
2017-Aug-17 01:25N 60°00' E 028°30'0 0.0
2017-Aug-17 00:58N 60°00' E 028°30'0 0.0
2017-Aug-17 00:28N 60°00' E 028°30'0 0.0
2017-Aug-16 23:58N 60°00' E 028°30'0 0.0
2017-Aug-16 23:28N 60°00' E 028°30'0 0.0
2017-Aug-16 22:58N 60°00' E 028°30'0 0.0
2017-Aug-16 22:28N 60°00' E 028°30'0 0.0
2017-Aug-16 21:58N 60°00' E 028°30'0 0.0
2017-Aug-16 21:28N 60°00' E 028°29'0 0.0
2017-Aug-16 20:54N 60°00' E 028°30'0 0.0
2017-Aug-16 20:30N 60°00' E 028°30'0 0.0
2017-Aug-16 19:58N 60°00' E 028°30'0 0.0
2017-Aug-16 19:30N 60°00' E 028°30'0 0.0
2017-Aug-16 18:58N 60°00' E 028°29'0 0.0
2017-Aug-16 18:28N 60°00' E 028°29'0 0.0
2017-Aug-16 17:58N 60°00' E 028°29'0 0.0
2017-Aug-16 17:28N 60°00' E 028°29'0 0.0
2017-Aug-16 16:58N 60°00' E 028°29'0 0.0
2017-Aug-16 16:26N 60°00' E 028°30'0 0.1
2017-Aug-16 15:58N 60°00' E 028°29'0 0.1
2017-Aug-16 15:28N 60°00' E 028°29'0 0.0
2017-Aug-16 14:58N 60°00' E 028°29'0 0.0
2017-Aug-16 14:29N 60°00' E 028°29'0 0.0
2017-Aug-16 13:59N 60°00' E 028°29'0 0.0
2017-Aug-16 13:30N 60°00' E 028°29'0 0.0
2017-Aug-16 12:59N 60°00' E 028°29'0 0.1
2017-Aug-16 12:29N 60°00' E 028°29'0 0.1
2017-Aug-16 12:00N 60°00' E 028°29'0 0.0
2017-Aug-16 11:30N 60°00' E 028°29'0 0.0
2017-Aug-16 11:00N 60°00' E 028°29'0 0.0
2017-Aug-16 10:30N 60°00' E 028°29'0 0.0
2017-Aug-16 09:58N 60°00' E 028°29'0 0.0
2017-Aug-16 09:30N 60°00' E 028°29'0 0.0
2017-Aug-16 08:59N 60°00' E 028°29'0 0.0
2017-Aug-16 08:22N 60°00' E 028°29'0 0.0
2017-Aug-16 07:59N 60°00' E 028°29'0 0.0
2017-Aug-16 07:29N 60°00' E 028°29'0 0.0
2017-Aug-16 06:58N 60°00' E 028°29'0 0.0
2017-Aug-16 06:28N 60°00' E 028°29'0 0.0
2017-Aug-16 06:00N 60°00' E 028°30'0 0.0
2017-Aug-16 05:30N 60°00' E 028°29'0 0.0
2017-Aug-16 04:56N 60°00' E 028°30'0 0.0
2017-Aug-16 04:25N 60°00' E 028°30'0 0.0
2017-Aug-16 03:58N 60°00' E 028°30'0 0.0
2017-Aug-16 03:28N 60°00' E 028°30'0 0.0
2017-Aug-16 02:59N 60°00' E 028°30'0 0.0
2017-Aug-16 02:28N 60°00' E 028°30'0 0.0
2017-Aug-16 02:00N 60°00' E 028°30'0 0.0
2017-Aug-16 01:28N 60°00' E 028°29'0 0.0
2017-Aug-16 00:58N 60°00' E 028°29'0 0.0
2017-Aug-16 00:28N 60°00' E 028°29'0 0.0
2017-Aug-15 23:58N 60°00' E 028°29'0 0.0
2017-Aug-15 23:28N 60°00' E 028°29'0 0.0
2017-Aug-15 22:58N 60°00' E 028°29'0 0.0
2017-Aug-15 22:30N 60°00' E 028°29'0 0.0
2017-Aug-15 21:58N 60°00' E 028°29'0 0.0
2017-Aug-15 21:28N 60°00' E 028°29'0 0.0
2017-Aug-15 20:58N 60°00' E 028°29'0 0.0
2017-Aug-15 20:29N 60°00' E 028°29'0 0.0
2017-Aug-15 19:58N 60°00' E 028°29'0 0.0
2017-Aug-15 19:29N 60°00' E 028°29'0 0.0
2017-Aug-15 18:59N 60°00' E 028°29'0 0.0
2017-Aug-15 18:28N 60°00' E 028°29'0 0.0
2017-Aug-15 17:58N 60°00' E 028°29'0 0.1
2017-Aug-15 17:25N 60°00' E 028°29'0 0.1
2017-Aug-15 16:58N 60°00' E 028°29'0 0.1
2017-Aug-15 16:28N 60°00' E 028°29'0 0.2
2017-Aug-15 15:58N 60°00' E 028°29'0 0.2
2017-Aug-15 15:28N 60°00' E 028°30'0 0.1
2017-Aug-15 14:58N 60°00' E 028°30'0 0.1
2017-Aug-15 14:28N 60°00' E 028°30'0 0.0
2017-Aug-15 13:58N 60°00' E 028°30'0 0.0
2017-Aug-15 13:28N 60°00' E 028°30'0 0.0
2017-Aug-15 12:58N 60°00' E 028°30'0 0.0
2017-Aug-15 12:25N 60°00' E 028°30'0 0.0
2017-Aug-15 11:58N 60°00' E 028°30'0 0.0
2017-Aug-15 11:28N 60°00' E 028°30'0 0.0
2017-Aug-15 10:58N 60°00' E 028°30'0 0.0
2017-Aug-15 10:28N 60°00' E 028°30'0 0.0
2017-Aug-15 09:58N 60°00' E 028°30'0 0.0
2017-Aug-15 09:28N 60°00' E 028°30'0 0.0
2017-Aug-15 08:58N 60°00' E 028°30'0 0.0
2017-Aug-15 08:28N 60°00' E 028°30'0 0.0
2017-Aug-15 07:58N 60°00' E 028°30'0 0.0
2017-Aug-15 07:28N 60°00' E 028°30'0 0.0
2017-Aug-15 06:58N 60°00' E 028°30'0 0.0
2017-Aug-15 06:28N 60°00' E 028°30'0 0.1
2017-Aug-15 05:58N 60°00' E 028°30'0 0.0
2017-Aug-15 05:28N 60°00' E 028°30'0 0.0
2017-Aug-15 04:55N 60°00' E 028°30'0 0.0
2017-Aug-15 04:28N 60°00' E 028°30'0 0.0
2017-Aug-15 03:58N 60°00' E 028°30'0 0.0
2017-Aug-15 03:28N 60°00' E 028°30'0 0.0
2017-Aug-15 02:58N 60°00' E 028°30'0 0.0
2017-Aug-15 02:28N 60°00' E 028°30'0 0.0
2017-Aug-15 01:58N 60°00' E 028°30'0 0.0
2017-Aug-15 01:30N 60°00' E 028°30'0 0.0
2017-Aug-15 00:59N 60°00' E 028°30'0 0.0
2017-Aug-15 00:28N 60°00' E 028°30'0 0.0
2017-Aug-14 23:58N 60°00' E 028°30'0 0.0
2017-Aug-14 23:28N 60°00' E 028°30'0 0.0
2017-Aug-14 22:58N 60°00' E 028°30'0 0.0
2017-Aug-14 22:28N 60°00' E 028°30'0 0.0
2017-Aug-14 21:58N 60°00' E 028°30'0 0.0
2017-Aug-14 21:28N 60°00' E 028°30'0 0.0
2017-Aug-14 20:58N 60°00' E 028°30'0 0.0
2017-Aug-14 20:28N 60°00' E 028°30'0 0.0
2017-Aug-14 19:59N 60°00' E 028°30'0 0.0
2017-Aug-14 19:30N 60°00' E 028°30'0 0.0
2017-Aug-14 18:58N 60°00' E 028°30'0 0.0
2017-Aug-14 18:28N 60°00' E 028°30'0 0.0
2017-Aug-14 17:58N 60°00' E 028°30'0 0.0
2017-Aug-14 17:28N 60°00' E 028°30'0 0.0
2017-Aug-14 16:58N 60°00' E 028°30'0 0.0
2017-Aug-14 16:28N 60°00' E 028°30'0 0.0
2017-Aug-14 15:58N 60°00' E 028°30'0 0.0
2017-Aug-14 15:28N 60°00' E 028°30'0 0.1
2017-Aug-14 14:55N 60°00' E 028°30'0 0.6
2017-Aug-14 14:31N 60°01' E 028°29'2 4.4
2017-Aug-14 14:00N 60°03' E 028°28'4 8.8
2017-Aug-14 13:31N 60°05' E 028°20'5 9.5
2017-Aug-14 13:01N 60°08' E 028°12'5 9.9
2017-Aug-14 12:31N 60°09' E 028°03'5 9.9
2017-Aug-14 12:00N 60°10' E 027°53'5 9.5
2017-Aug-14 11:30N 60°10' E 027°43'713.7
2017-Aug-14 11:01N 60°06' E 027°32'612.6
2017-Aug-14 10:30N 60°03' E 027°21'510.0
2017-Aug-14 10:00N 60°01' E 027°12'5 9.5
2017-Aug-14 09:30N 59°58' E 027°04'5 9.2
2017-Aug-14 09:00N 59°58' E 026°55'5 9.8
2017-Aug-14 08:30N 59°59' E 026°45'5 9.3
2017-Aug-14 08:00N 59°59' E 026°36'5 9.4
2017-Aug-14 07:30N 59°58' E 026°27'5 9.3
2017-Aug-14 07:00N 59°57' E 026°18'5 9.2
2017-Aug-14 06:30N 59°55' E 026°09'5 9.4
2017-Aug-14 06:00N 59°54' E 026°00'5 9.1
2017-Aug-14 05:30N 59°53' E 025°51'5 9.1
2017-Aug-14 05:00N 59°52' E 025°43'5 9.4
2017-Aug-14 04:30N 59°51' E 025°34'5 9.2
2017-Aug-14 04:00N 59°50' E 025°25'4 8.8
2017-Aug-14 03:30N 59°49' E 025°16'4 8.8
2017-Aug-14 03:00N 59°48' E 025°07'5 9.1
2017-Aug-14 02:30N 59°47' E 024°59'5 9.2
2017-Aug-14 02:00N 59°46' E 024°50'5 9.2
2017-Aug-14 01:30N 59°45' E 024°41'5 9.1
2017-Aug-14 01:00N 59°43' E 024°33'4 8.9
2017-Aug-14 00:30N 59°39' E 024°27'4 8.6
2017-Aug-14 00:00N 59°35' E 024°24'4 8.0
2017-Aug-13 23:30N 59°32' E 024°28'3 5.8
2017-Aug-13 23:01N 59°29' E 024°30'0 0.2
2017-Aug-13 22:29N 59°29' E 024°30'0 0.1
2017-Aug-13 21:59N 59°29' E 024°31'0 0.0
2017-Aug-13 21:29N 59°29' E 024°31'0 0.0
2017-Aug-13 20:59N 59°29' E 024°31'0 0.0
2017-Aug-13 20:29N 59°29' E 024°31'0 0.0
2017-Aug-13 19:53N 59°29' E 024°31'0 0.0
2017-Aug-13 19:29N 59°29' E 024°31'0 0.0
2017-Aug-13 18:59N 59°29' E 024°31'0 0.1
2017-Aug-13 18:29N 59°29' E 024°31'0 0.1
2017-Aug-13 17:59N 59°29' E 024°30'0 0.1
2017-Aug-13 17:26N 59°29' E 024°31'0 0.0
2017-Aug-13 16:56N 59°29' E 024°31'0 0.5
2017-Aug-13 16:29N 59°29' E 024°30'1 1.1
2017-Aug-13 16:00N 59°30' E 024°29'2 4.5
2017-Aug-13 15:30N 59°30' E 024°25'4 8.4
2017-Aug-13 15:00N 59°30' E 024°16'5 9.1
2017-Aug-13 14:30N 59°30' E 024°07'3 6.6
2017-Aug-13 14:00N 59°30' E 024°01'3 6.4
2017-Aug-13 13:30N 59°30' E 023°55'3 6.4
2017-Aug-13 13:00N 59°30' E 023°48'3 6.3
2017-Aug-13 12:30N 59°30' E 023°42'3 6.2
2017-Aug-13 12:00N 59°30' E 023°36'3 6.1
2017-Aug-13 11:30N 59°30' E 023°30'3 6.9
2017-Aug-13 11:00N 59°30' E 023°23'612.9
2017-Aug-13 10:30N 59°30' E 023°10'611.4
2017-Aug-13 10:00N 59°29' E 022°59'3 6.2
2017-Aug-13 09:30N 59°28' E 022°54'4 8.3
2017-Aug-13 09:00N 59°26' E 022°46'5 9.5
2017-Aug-13 08:30N 59°25' E 022°37'5 9.5
2017-Aug-13 08:00N 59°22' E 022°30'5 9.4
2017-Aug-13 07:30N 59°19' E 022°22'5 9.5
2017-Aug-13 07:00N 59°16' E 022°15'5 9.8
2017-Aug-13 06:30N 59°13' E 022°07'5 9.8
2017-Aug-13 06:00N 59°10' E 021°60'5 9.8
2017-Aug-13 05:30N 59°07' E 021°52'5 9.8
2017-Aug-13 05:00N 59°04' E 021°45'5 9.8
2017-Aug-13 04:30N 58°60' E 021°40'5 9.8
2017-Aug-13 04:00N 58°56' E 021°34'  
Track history (hours):
 
Tides and Currents Weather Stations Pressure Air Temp Water Temp Dewpoint Dewpoint Depression Visibility Wind Speed Wind Dir Waves Ship Positions

Scf Baltica

Last reported at 2017-Aug-22 21:59 UTC. Time now 2017-Aug-22 22:21 UTC.
Position N 57°47' E 010°49'.

Length 250 m; draft 14.3 m.

Type: Ship. MMSI: 636012813.

Date/timePositionNaut miles runAvg speedWind from/ knotsBaromVisibWave heightAir tempDewpointWater temp
2017-Aug-22 21:59N 57°47' E 010°49'611.7
2017-Aug-22 21:28N 57°42' E 010°57'612.3
2017-Aug-22 21:00N 57°38' E 011°05'612.5
2017-Aug-22 20:30N 57°34' E 011°13'612.7
2017-Aug-22 20:00N 57°30' E 011°22'611.8
2017-Aug-22 19:30N 57°25' E 011°28'612.0
2017-Aug-22 19:00N 57°19' E 011°31'812.2
2017-Aug-22 18:23N 57°12' E 011°36'711.8
2017-Aug-22 17:50N 57°06' E 011°40'10610.6
2017-Aug-22 07:50N 55°22' E 011°02'3 8.8
2017-Aug-22 07:29N 55°19' E 011°02'510.3
2017-Aug-22 06:59N 55°14' E 011°06'510.5
2017-Aug-22 06:30N 55°10' E 011°01'611.5
2017-Aug-22 06:00N 55°04' E 010°60'511.1
2017-Aug-22 05:30N 54°59' E 010°58'611.3
2017-Aug-22 05:00N 54°54' E 010°52'510.9
2017-Aug-22 04:30N 54°49' E 010°50'510.5
2017-Aug-22 04:00N 54°44' E 010°47'510.0
2017-Aug-22 03:30N 54°39' E 010°50'510.9
2017-Aug-22 03:00N 54°37' E 010°58'510.6
2017-Aug-22 02:30N 54°36' E 011°07'510.5
2017-Aug-22 02:00N 54°34' E 011°15'611.1
2017-Aug-22 01:30N 54°32' E 011°24'611.3
2017-Aug-22 01:00N 54°29' E 011°33'611.0
2017-Aug-22 00:30N 54°27' E 011°41'811.2
2017-Aug-21 23:47N 54°26' E 011°55'311.0
2017-Aug-21 23:30N 54°26' E 012°01'4 8.9
2017-Aug-21 23:00N 54°26' E 012°08'4 8.4
2017-Aug-21 22:30N 54°30' E 012°13'5 9.7
2017-Aug-21 22:00N 54°34' E 012°16'4 8.4
2017-Aug-21 21:30N 54°38' E 012°20'6 5.0
2017-Aug-21 20:17N 54°41' E 012°29'1 3.4
2017-Aug-21 20:00N 54°41' E 012°30'2 3.6
2017-Aug-21 19:30N 54°42' E 012°33'33 9.4
2017-Aug-21 15:56N 54°56' E 013°25'512.5
2017-Aug-21 15:30N 54°58' E 013°35'612.6
2017-Aug-21 15:00N 54°60' E 013°45'612.6
2017-Aug-21 14:30N 55°02' E 013°55'612.3
2017-Aug-21 14:00N 55°04' E 014°05'612.7
2017-Aug-21 13:30N 55°09' E 014°12'612.9
2017-Aug-21 13:00N 55°14' E 014°19'713.0
2017-Aug-21 12:30N 55°19' E 014°26'713.0
2017-Aug-21 12:00N 55°24' E 014°33'612.6
2017-Aug-21 11:30N 55°28' E 014°42'713.1
2017-Aug-21 11:00N 55°31' E 014°52'713.1
2017-Aug-21 10:30N 55°35' E 015°02'713.6
2017-Aug-21 10:01N 55°37' E 015°13'713.8
2017-Aug-21 09:30N 55°39' E 015°25'713.7
2017-Aug-21 09:00N 55°41' E 015°37'713.7
2017-Aug-21 08:30N 55°42' E 015°49'713.8
2017-Aug-21 08:00N 55°44' E 016°01'613.1
2017-Aug-21 07:30N 55°45' E 016°12'712.9
2017-Aug-21 07:00N 55°47' E 016°23'713.0
2017-Aug-21 06:30N 55°49' E 016°34'712.9
2017-Aug-21 05:58N 55°50' E 016°46'24210.7
2017-Aug-20 07:27N 58°59' E 021°27'512.2
2017-Aug-20 07:00N 59°04' E 021°33'612.3
2017-Aug-20 06:30N 59°09' E 021°39'612.2
2017-Aug-20 06:00N 59°13' E 021°48'612.4
2017-Aug-20 05:30N 59°17' E 021°58'612.3
2017-Aug-20 05:00N 59°20' E 022°08'612.4
2017-Aug-20 04:30N 59°24' E 022°17'612.3
2017-Aug-20 04:01N 59°28' E 022°26'713.4
2017-Aug-20 03:30N 59°31' E 022°38'510.7
2017-Aug-20 03:00N 59°32' E 022°48'612.1
2017-Aug-20 02:30N 59°34' E 022°59'612.2
2017-Aug-20 02:01N 59°36' E 023°11'612.0
2017-Aug-20 01:30N 59°38' E 023°22'612.2
2017-Aug-20 01:01N 59°39' E 023°34'612.2
2017-Aug-20 00:31N 59°41' E 023°45'612.2
2017-Aug-20 00:01N 59°43' E 023°57'612.4
2017-Aug-19 23:30N 59°45' E 024°09'612.6
2017-Aug-19 23:01N 59°46' E 024°21'612.9
2017-Aug-19 22:30N 59°48' E 024°33'612.7
2017-Aug-19 22:00N 59°49' E 024°46'612.6
2017-Aug-19 21:31N 59°50' E 024°58'612.6
2017-Aug-19 21:01N 59°51' E 025°10'612.7
2017-Aug-19 20:31N 59°53' E 025°23'713.2
2017-Aug-19 20:00N 59°54' E 025°36'714.0
2017-Aug-19 19:30N 59°56' E 025°49'611.0
2017-Aug-19 19:00N 59°57' E 025°60'612.5
2017-Aug-19 18:31N 59°59' E 026°12'612.0
2017-Aug-19 18:01N 60°00' E 026°23'611.9
2017-Aug-19 17:31N 60°02' E 026°35'612.1
2017-Aug-19 17:01N 60°01' E 026°47'612.2
2017-Aug-19 16:31N 59°60' E 026°59'611.8
2017-Aug-19 16:01N 60°01' E 027°10'612.1
2017-Aug-19 15:31N 60°05' E 027°21'612.1
2017-Aug-19 15:00N 60°08' E 027°31'1211.8
2017-Aug-19 14:01N 60°11' E 027°54'612.7
2017-Aug-19 13:31N 60°09' E 028°06'612.7
2017-Aug-19 13:00N 60°08' E 028°18'612.3
2017-Aug-19 12:31N 60°08' E 028°30'612.5
2017-Aug-19 12:01N 60°11' E 028°42'4 8.7
2017-Aug-19 11:30N 60°14' E 028°47'4 8.0
2017-Aug-19 11:01N 60°18' E 028°44'2 4.8
2017-Aug-19 10:31N 60°20' E 028°42'0 0.2
2017-Aug-19 09:58N 60°20' E 028°42'0 0.0
2017-Aug-19 09:28N 60°20' E 028°42'0 0.0
2017-Aug-19 08:58N 60°20' E 028°42'0 0.0
2017-Aug-19 08:28N 60°20' E 028°42'0 0.0
2017-Aug-19 07:58N 60°20' E 028°42'0 0.0
2017-Aug-19 07:28N 60°20' E 028°42'0 0.0
2017-Aug-19 06:58N 60°20' E 028°42'0 0.0
2017-Aug-19 06:28N 60°20' E 028°42'0 0.0
2017-Aug-19 05:58N 60°20' E 028°42'0 0.0
2017-Aug-19 05:24N 60°20' E 028°42'0 0.0
2017-Aug-19 04:58N 60°20' E 028°42'0 0.0
2017-Aug-19 04:28N 60°20' E 028°42'0 0.0
2017-Aug-19 03:52N 60°20' E 028°42'0 0.0
2017-Aug-19 03:28N 60°20' E 028°42'0 0.0
2017-Aug-19 02:52N 60°20' E 028°42'0 0.0
2017-Aug-19 02:22N 60°20' E 028°42'0 0.0
2017-Aug-19 01:52N 60°20' E 028°42'0 0.0
2017-Aug-19 01:28N 60°20' E 028°42'0 0.0
2017-Aug-19 00:58N 60°20' E 028°42'0 0.0
2017-Aug-19 00:28N 60°20' E 028°42'0 0.0
2017-Aug-18 23:55N 60°20' E 028°42'0 0.0
2017-Aug-18 23:28N 60°20' E 028°42'0 0.0
2017-Aug-18 22:58N 60°20' E 028°42'0 0.0
2017-Aug-18 22:22N 60°20' E 028°42'0 0.0
2017-Aug-18 21:58N 60°20' E 028°42'0 0.0
2017-Aug-18 21:28N 60°20' E 028°42'0 0.0
2017-Aug-18 20:58N 60°20' E 028°42'0 0.0
2017-Aug-18 20:25N 60°20' E 028°42'0 0.0
2017-Aug-18 19:55N 60°20' E 028°42'0 0.0
2017-Aug-18 19:28N 60°20' E 028°42'0 0.0
2017-Aug-18 18:58N 60°20' E 028°42'0 0.0
2017-Aug-18 18:28N 60°20' E 028°42'0 0.0
2017-Aug-18 17:58N 60°20' E 028°42'0 0.0
2017-Aug-18 17:28N 60°20' E 028°42'0 0.0
2017-Aug-18 16:58N 60°20' E 028°42'0 0.0
2017-Aug-18 16:28N 60°20' E 028°42'0 0.0
2017-Aug-18 15:58N 60°20' E 028°42'0 0.0
2017-Aug-18 15:28N 60°20' E 028°42'0 0.0
2017-Aug-18 14:58N 60°20' E 028°42'0 0.0
2017-Aug-18 14:25N 60°20' E 028°42'0 0.0
2017-Aug-18 13:28N 60°20' E 028°42'0 0.0
2017-Aug-18 12:58N 60°20' E 028°42'0 0.0
2017-Aug-18 12:28N 60°20' E 028°42'0 0.0
2017-Aug-18 11:55N 60°20' E 028°42'0 0.0
2017-Aug-18 11:25N 60°20' E 028°42'0 0.0
2017-Aug-18 10:58N 60°20' E 028°42'0 0.0
2017-Aug-18 10:28N 60°20' E 028°42'0 0.0
2017-Aug-18 09:58N 60°20' E 028°42'0 0.0
2017-Aug-18 09:28N 60°20' E 028°42'0 0.0
2017-Aug-18 08:58N 60°20' E 028°42'0 0.0
2017-Aug-18 08:25N 60°20' E 028°42'0 0.0
2017-Aug-18 07:58N 60°20' E 028°42'0 0.0
2017-Aug-18 07:28N 60°20' E 028°42'0 0.4
2017-Aug-18 07:00N 60°20' E 028°41'1 2.2
2017-Aug-18 06:30N 60°19' E 028°42'4 8.4
2017-Aug-18 06:01N 60°16' E 028°48'612.1
2017-Aug-18 05:30N 60°10' E 028°42'713.4
2017-Aug-18 05:01N 60°06' E 028°33'611.1
2017-Aug-18 04:30N 60°01' E 028°29'0 0.6
2017-Aug-18 03:58N 60°00' E 028°30'0 0.0
2017-Aug-18 03:25N 60°00' E 028°30'0 0.0
2017-Aug-18 02:58N 60°00' E 028°30'0 0.0
2017-Aug-18 02:25N 60°00' E 028°30'0 0.0
2017-Aug-18 01:55N 60°00' E 028°30'0 0.0
2017-Aug-18 01:28N 60°00' E 028°29'0 0.0
2017-Aug-18 00:58N 60°00' E 028°29'0 0.0
2017-Aug-18 00:29N 60°00' E 028°30'0 0.0
2017-Aug-17 23:58N 60°00' E 028°30'0 0.0
2017-Aug-17 23:28N 60°00' E 028°30'0 0.0
2017-Aug-17 22:58N 60°00' E 028°29'0 0.0
2017-Aug-17 22:28N 60°00' E 028°29'0 0.0
2017-Aug-17 21:58N 60°00' E 028°29'0 0.0
2017-Aug-17 21:28N 60°00' E 028°29'0 0.1
2017-Aug-17 20:59N 60°00' E 028°29'0 0.0
2017-Aug-17 20:25N 60°00' E 028°29'0 0.0
2017-Aug-17 19:59N 60°00' E 028°29'0 0.0
2017-Aug-17 19:28N 60°00' E 028°29'0 0.0
2017-Aug-17 18:59N 60°00' E 028°29'0 0.0
2017-Aug-17 18:28N 60°00' E 028°29'0 0.0
2017-Aug-17 18:00N 60°00' E 028°29'0 0.0
2017-Aug-17 17:30N 60°00' E 028°29'0 0.0
2017-Aug-17 16:58N 60°00' E 028°29'0 0.0
2017-Aug-17 16:29N 60°00' E 028°29'0 0.0
2017-Aug-17 15:58N 60°00' E 028°29'0 0.0
2017-Aug-17 15:28N 60°00' E 028°29'0 0.0
2017-Aug-17 14:58N 60°00' E 028°29'0 0.0
2017-Aug-17 14:29N 60°00' E 028°29'0 0.0
2017-Aug-17 13:59N 60°00' E 028°29'0 0.0
2017-Aug-17 13:29N 60°00' E 028°29'0 0.1
2017-Aug-17 13:01N 60°00' E 028°29'0 0.0
2017-Aug-17 12:30N 60°00' E 028°29'0 0.0
2017-Aug-17 11:58N 60°00' E 028°29'0 0.0
2017-Aug-17 11:28N 60°00' E 028°29'0 0.0
2017-Aug-17 10:58N 60°00' E 028°29'0 0.0
2017-Aug-17 10:30N 60°00' E 028°29'0 0.0
2017-Aug-17 09:59N 60°00' E 028°29'0 0.0
2017-Aug-17 09:29N 60°00' E 028°29'0 0.0
2017-Aug-17 08:58N 60°00' E 028°29'0 0.1
2017-Aug-17 08:28N 60°00' E 028°29'0 0.0
2017-Aug-17 07:58N 60°00' E 028°29'0 0.0
2017-Aug-17 07:29N 60°00' E 028°29'0 0.0
2017-Aug-17 06:55N 60°00' E 028°29'0 0.0
2017-Aug-17 06:29N 60°00' E 028°29'0 0.0
2017-Aug-17 05:58N 60°00' E 028°29'0 0.0
2017-Aug-17 05:28N 60°00' E 028°29'0 0.0
2017-Aug-17 04:58N 60°00' E 028°29'0 0.0
2017-Aug-17 04:28N 60°00' E 028°29'0 0.0
2017-Aug-17 03:58N 60°00' E 028°29'0 0.1
2017-Aug-17 03:28N 60°00' E 028°29'0 0.0
2017-Aug-17 02:58N 60°00' E 028°29'0 0.0
2017-Aug-17 02:28N 60°00' E 028°29'0 0.0
2017-Aug-17 01:55N 60°00' E 028°29'0 0.0
2017-Aug-17 01:25N 60°00' E 028°30'0 0.0
2017-Aug-17 00:58N 60°00' E 028°30'0 0.0
2017-Aug-17 00:28N 60°00' E 028°30'0 0.0
2017-Aug-16 23:58N 60°00' E 028°30'0 0.0
2017-Aug-16 23:28N 60°00' E 028°30'0 0.0
2017-Aug-16 22:58N 60°00' E 028°30'0 0.0
2017-Aug-16 22:28N 60°00' E 028°30'0 0.0
2017-Aug-16 21:58N 60°00' E 028°30'0 0.0
2017-Aug-16 21:28N 60°00' E 028°29'0 0.0
2017-Aug-16 20:54N 60°00' E 028°30'0 0.0
2017-Aug-16 20:30N 60°00' E 028°30'0 0.0
2017-Aug-16 19:58N 60°00' E 028°30'0 0.0
2017-Aug-16 19:30N 60°00' E 028°30'0 0.0
2017-Aug-16 18:58N 60°00' E 028°29'0 0.0
2017-Aug-16 18:28N 60°00' E 028°29'0 0.0
2017-Aug-16 17:58N 60°00' E 028°29'0 0.0
2017-Aug-16 17:28N 60°00' E 028°29'0 0.0
2017-Aug-16 16:58N 60°00' E 028°29'0 0.0
2017-Aug-16 16:26N 60°00' E 028°30'0 0.1
2017-Aug-16 15:58N 60°00' E 028°29'0 0.1
2017-Aug-16 15:28N 60°00' E 028°29'0 0.0
2017-Aug-16 14:58N 60°00' E 028°29'0 0.0
2017-Aug-16 14:29N 60°00' E 028°29'0 0.0
2017-Aug-16 13:59N 60°00' E 028°29'0 0.0
2017-Aug-16 13:30N 60°00' E 028°29'0 0.0
2017-Aug-16 12:59N 60°00' E 028°29'0 0.1
2017-Aug-16 12:29N 60°00' E 028°29'0 0.1
2017-Aug-16 12:00N 60°00' E 028°29'0 0.0
2017-Aug-16 11:30N 60°00' E 028°29'0 0.0
2017-Aug-16 11:00N 60°00' E 028°29'0 0.0
2017-Aug-16 10:30N 60°00' E 028°29'0 0.0
2017-Aug-16 09:58N 60°00' E 028°29'0 0.0
2017-Aug-16 09:30N 60°00' E 028°29'0 0.0
2017-Aug-16 08:59N 60°00' E 028°29'0 0.0
2017-Aug-16 08:22N 60°00' E 028°29'0 0.0
2017-Aug-16 07:59N 60°00' E 028°29'0 0.0
2017-Aug-16 07:29N 60°00' E 028°29'0 0.0
2017-Aug-16 06:58N 60°00' E 028°29'0 0.0
2017-Aug-16 06:28N 60°00' E 028°29'0 0.0
2017-Aug-16 06:00N 60°00' E 028°30'0 0.0
2017-Aug-16 05:30N 60°00' E 028°29'0 0.0
2017-Aug-16 04:56N 60°00' E 028°30'0 0.0
2017-Aug-16 04:25N 60°00' E 028°30'0 0.0
2017-Aug-16 03:58N 60°00' E 028°30'0 0.0
2017-Aug-16 03:28N 60°00' E 028°30'0 0.0
2017-Aug-16 02:59N 60°00' E 028°30'0 0.0
2017-Aug-16 02:28N 60°00' E 028°30'0 0.0
2017-Aug-16 02:00N 60°00' E 028°30'0 0.0
2017-Aug-16 01:28N 60°00' E 028°29'0 0.0
2017-Aug-16 00:58N 60°00' E 028°29'0 0.0
2017-Aug-16 00:28N 60°00' E 028°29'0 0.0
2017-Aug-15 23:58N 60°00' E 028°29'0 0.0
2017-Aug-15 23:28N 60°00' E 028°29'0 0.0
2017-Aug-15 22:58N 60°00' E 028°29'0 0.0
2017-Aug-15 22:30N 60°00' E 028°29'0 0.0
2017-Aug-15 21:58N 60°00' E 028°29'0 0.0
2017-Aug-15 21:28N 60°00' E 028°29'0 0.0
2017-Aug-15 20:58N 60°00' E 028°29'0 0.0
2017-Aug-15 20:29N 60°00' E 028°29'0 0.0
2017-Aug-15 19:58N 60°00' E 028°29'0 0.0
2017-Aug-15 19:29N 60°00' E 028°29'0 0.0
2017-Aug-15 18:59N 60°00' E 028°29'0 0.0
2017-Aug-15 18:28N 60°00' E 028°29'0 0.0
2017-Aug-15 17:58N 60°00' E 028°29'0 0.1
2017-Aug-15 17:25N 60°00' E 028°29'0 0.1
2017-Aug-15 16:58N 60°00' E 028°29'0 0.1
2017-Aug-15 16:28N 60°00' E 028°29'0 0.2
2017-Aug-15 15:58N 60°00' E 028°29'0 0.2
2017-Aug-15 15:28N 60°00' E 028°30'0 0.1
2017-Aug-15 14:58N 60°00' E 028°30'0 0.1
2017-Aug-15 14:28N 60°00' E 028°30'0 0.0
2017-Aug-15 13:58N 60°00' E 028°30'0 0.0
2017-Aug-15 13:28N 60°00' E 028°30'0 0.0
2017-Aug-15 12:58N 60°00' E 028°30'0 0.0
2017-Aug-15 12:25N 60°00' E 028°30'0 0.0
2017-Aug-15 11:58N 60°00' E 028°30'0 0.0
2017-Aug-15 11:28N 60°00' E 028°30'0 0.0
2017-Aug-15 10:58N 60°00' E 028°30'0 0.0
2017-Aug-15 10:28N 60°00' E 028°30'0 0.0
2017-Aug-15 09:58N 60°00' E 028°30'0 0.0
2017-Aug-15 09:28N 60°00' E 028°30'0 0.0
2017-Aug-15 08:58N 60°00' E 028°30'0 0.0
2017-Aug-15 08:28N 60°00' E 028°30'0 0.0
2017-Aug-15 07:58N 60°00' E 028°30'0 0.0
2017-Aug-15 07:28N 60°00' E 028°30'0 0.0
2017-Aug-15 06:58N 60°00' E 028°30'0 0.0
2017-Aug-15 06:28N 60°00' E 028°30'0 0.1
2017-Aug-15 05:58N 60°00' E 028°30'0 0.0
2017-Aug-15 05:28N 60°00' E 028°30'0 0.0
2017-Aug-15 04:55N 60°00' E 028°30'0 0.0
2017-Aug-15 04:28N 60°00' E 028°30'0 0.0
2017-Aug-15 03:58N 60°00' E 028°30'0 0.0
2017-Aug-15 03:28N 60°00' E 028°30'0 0.0
2017-Aug-15 02:58N 60°00' E 028°30'0 0.0
2017-Aug-15 02:28N 60°00' E 028°30'0 0.0
2017-Aug-15 01:58N 60°00' E 028°30'0 0.0
2017-Aug-15 01:30N 60°00' E 028°30'0 0.0
2017-Aug-15 00:59N 60°00' E 028°30'0 0.0
2017-Aug-15 00:28N 60°00' E 028°30'0 0.0
2017-Aug-14 23:58N 60°00' E 028°30'0 0.0
2017-Aug-14 23:28N 60°00' E 028°30'0 0.0
2017-Aug-14 22:58N 60°00' E 028°30'0 0.0
2017-Aug-14 22:28N 60°00' E 028°30'0 0.0
2017-Aug-14 21:58N 60°00' E 028°30'0 0.0
2017-Aug-14 21:28N 60°00' E 028°30'0 0.0
2017-Aug-14 20:58N 60°00' E 028°30'0 0.0
2017-Aug-14 20:28N 60°00' E 028°30'0 0.0
2017-Aug-14 19:59N 60°00' E 028°30'0 0.0
2017-Aug-14 19:30N 60°00' E 028°30'0 0.0
2017-Aug-14 18:58N 60°00' E 028°30'0 0.0
2017-Aug-14 18:28N 60°00' E 028°30'0 0.0
2017-Aug-14 17:58N 60°00' E 028°30'0 0.0
2017-Aug-14 17:28N 60°00' E 028°30'0 0.0
2017-Aug-14 16:58N 60°00' E 028°30'0 0.0
2017-Aug-14 16:28N 60°00' E 028°30'0 0.0
2017-Aug-14 15:58N 60°00' E 028°30'0 0.0
2017-Aug-14 15:28N 60°00' E 028°30'0 0.1
2017-Aug-14 14:55N 60°00' E 028°30'0 0.6
2017-Aug-14 14:31N 60°01' E 028°29'2 4.4
2017-Aug-14 14:00N 60°03' E 028°28'4 8.8
2017-Aug-14 13:31N 60°05' E 028°20'5 9.5
2017-Aug-14 13:01N 60°08' E 028°12'5 9.9
2017-Aug-14 12:31N 60°09' E 028°03'5 9.9
2017-Aug-14 12:00N 60°10' E 027°53'5 9.5
2017-Aug-14 11:30N 60°10' E 027°43'713.7
2017-Aug-14 11:01N 60°06' E 027°32'612.6
2017-Aug-14 10:30N 60°03' E 027°21'510.0
2017-Aug-14 10:00N 60°01' E 027°12'5 9.5
2017-Aug-14 09:30N 59°58' E 027°04'5 9.2
2017-Aug-14 09:00N 59°58' E 026°55'5 9.8
2017-Aug-14 08:30N 59°59' E 026°45'5 9.3
2017-Aug-14 08:00N 59°59' E 026°36'5 9.4
2017-Aug-14 07:30N 59°58' E 026°27'5 9.3
2017-Aug-14 07:00N 59°57' E 026°18'5 9.2
2017-Aug-14 06:30N 59°55' E 026°09'5 9.4
2017-Aug-14 06:00N 59°54' E 026°00'5 9.1
2017-Aug-14 05:30N 59°53' E 025°51'5 9.1
2017-Aug-14 05:00N 59°52' E 025°43'5 9.4
2017-Aug-14 04:30N 59°51' E 025°34'5 9.2
2017-Aug-14 04:00N 59°50' E 025°25'4 8.8
2017-Aug-14 03:30N 59°49' E 025°16'4 8.8
2017-Aug-14 03:00N 59°48' E 025°07'5 9.1
2017-Aug-14 02:30N 59°47' E 024°59'5 9.2
2017-Aug-14 02:00N 59°46' E 024°50'5 9.2
2017-Aug-14 01:30N 59°45' E 024°41'5 9.1
2017-Aug-14 01:00N 59°43' E 024°33'4 8.9
2017-Aug-14 00:30N 59°39' E 024°27'4 8.6
2017-Aug-14 00:00N 59°35' E 024°24'4 8.0
2017-Aug-13 23:30N 59°32' E 024°28'3 5.8
2017-Aug-13 23:01N 59°29' E 024°30'0 0.2
2017-Aug-13 22:29N 59°29' E 024°30'0 0.1
2017-Aug-13 21:59N 59°29' E 024°31'0 0.0
2017-Aug-13 21:29N 59°29' E 024°31'0 0.0
2017-Aug-13 20:59N 59°29' E 024°31'0 0.0
2017-Aug-13 20:29N 59°29' E 024°31'0 0.0
2017-Aug-13 19:53N 59°29' E 024°31'0 0.0
2017-Aug-13 19:29N 59°29' E 024°31'0 0.0
2017-Aug-13 18:59N 59°29' E 024°31'0 0.1
2017-Aug-13 18:29N 59°29' E 024°31'0 0.1
2017-Aug-13 17:59N 59°29' E 024°30'0 0.1
2017-Aug-13 17:26N 59°29' E 024°31'0 0.0
2017-Aug-13 16:56N 59°29' E 024°31'0 0.5
2017-Aug-13 16:29N 59°29' E 024°30'1 1.1
2017-Aug-13 16:00N 59°30' E 024°29'2 4.5
2017-Aug-13 15:30N 59°30' E 024°25'4 8.4
2017-Aug-13 15:00N 59°30' E 024°16'5 9.1
2017-Aug-13 14:30N 59°30' E 024°07'3 6.6
2017-Aug-13 14:00N 59°30' E 024°01'3 6.4
2017-Aug-13 13:30N 59°30' E 023°55'3 6.4
2017-Aug-13 13:00N 59°30' E 023°48'3 6.3
2017-Aug-13 12:30N 59°30' E 023°42'3 6.2
2017-Aug-13 12:00N 59°30' E 023°36'3 6.1
2017-Aug-13 11:30N 59°30' E 023°30'3 6.9
2017-Aug-13 11:00N 59°30' E 023°23'612.9
2017-Aug-13 10:30N 59°30' E 023°10'611.4
2017-Aug-13 10:00N 59°29' E 022°59'3 6.2
2017-Aug-13 09:30N 59°28' E 022°54'4 8.3
2017-Aug-13 09:00N 59°26' E 022°46'5 9.5
2017-Aug-13 08:30N 59°25' E 022°37'5 9.5
2017-Aug-13 08:00N 59°22' E 022°30'5 9.4
2017-Aug-13 07:30N 59°19' E 022°22'5 9.5
2017-Aug-13 07:00N 59°16' E 022°15'5 9.8
2017-Aug-13 06:30N 59°13' E 022°07'5 9.8
2017-Aug-13 06:00N 59°10' E 021°60'5 9.8
2017-Aug-13 05:30N 59°07' E 021°52'5 9.8
2017-Aug-13 05:00N 59°04' E 021°45'5 9.8
2017-Aug-13 04:30N 58°60' E 021°40'5 9.8
2017-Aug-13 04:00N 58°56' E 021°34'  

Dump ship's entire track history